• Join FlightAware (Why Join?)
  • Login
  • US Flag 
01:53AM EDT


 

Airport Tracker/Info


-or-


 

Live Flight TrackerFlight Track Log ✈ UAL258 ✈ 16-May-2013 ✈ KORD - KLAS

Flight Track Log - Related Links

Times and Time Zones

All times are in EDT time to prevent confusion due to time zone crossing. See the UAL258 flight status page for this flight to view local times or setup timezone preferences in your user account.

Time Position Orientation Groundspeed Altitude Reporting Facility
EDT Latitude Longitude Course Direction KTS MPH feet Rate Location/Type
08:55AM 42.0000 -87.9833 261° West 191 220 2,600  Level Chicago TRACON
08:56AM 41.9833 -88.0500 251° West 235 270 4,100 1,980 Climbing Chicago TRACON
08:57AM 41.9309 -88.3455 255° West  Level FlightAware Approximate
08:57AM 41.9853 -88.1675 271° West 268 308 6,900  Level Chicago Center
08:58AM 41.9134 -88.4943 261° West  Level FlightAware Approximate
08:58AM 41.9775 -88.2869 265° West 269 310 11,100  Level Chicago Center
08:59AM 41.8959 -88.6441 261° West  Level FlightAware Approximate
08:59AM 41.9603 -88.3961 258° West 305 351 12,400  Level Chicago Center
09:00AM 41.8783 -88.7938 261° West  Level FlightAware Approximate
09:00AM 41.9369 -88.5142 255° West 329 379 15,000  Level Chicago Center
09:01AM 41.9164 -88.6353 257° West 336 387 16,700 1,740 Climbing Chicago Center
09:02AM 41.8917 -88.7633 256° West 353 406 18,600 1,920 Climbing Chicago Center
09:03AM 41.8597 -88.9211 255° West 368 423 20,700 1,800 Climbing Chicago Center
09:04AM 41.8319 -89.0567 255° West 378 435 22,400 1,500 Climbing Chicago Center
09:05AM 41.8233 -89.1967 265° West 381 438 23,900 1,320 Climbing Chicago Center
09:06AM 41.8144 -89.3389 265° West 384 442 25,200 1,200 Climbing Chicago Center
09:07AM 41.8044 -89.4836 265° West 390 449 26,400 1,140 Climbing Chicago Center
09:08AM 41.7919 -89.6547 264° West 403 464 27,600 1,080 Climbing Chicago Center
09:09AM 41.7819 -89.8064 265° West 409 471 28,700 960 Climbing Chicago Center
09:10AM 41.7706 -89.9606 264° West 415 478 29,600 840 Climbing Chicago Center
09:11AM 41.7592 -90.1169 264° West 422 486 30,500 780 Climbing Chicago Center
09:12AM 41.7478 -90.2758 265° West 428 493 31,300 960 Climbing Chicago Center
09:13AM 41.7317 -90.4719 264° West 439 505 32,500 1,200 Climbing Chicago Center
09:14AM 41.7186 -90.6344 264° West 428 493 33,900 1,200 Climbing Chicago Center
09:15AM 41.7058 -90.7886 264° West 421 484 35,100 960 Climbing Chicago Center
09:17AM 41.6939 -90.9375 264° West 409 471 36,000 420 Climbing Chicago Center
09:18AM 41.6811 -91.0869 264° West 407 468 36,000  Level Chicago Center
09:19AM 41.6692 -91.2381 264° West 410 472 36,000  Level Chicago Center
09:20AM 41.6564 -91.3889 264° West 409 471 36,000  Level Chicago Center
09:21AM 41.6397 -91.5700 263° West 412 474 36,000  Level Chicago Center
09:22AM 41.6272 -91.7206 264° West 410 472 36,000  Level Chicago Center
09:23AM 41.6133 -91.8711 263° West 410 472 36,000  Level Chicago Center
09:24AM 41.5983 -92.0203 262° West 409 471 36,000  Level Chicago Center
09:25AM 41.5839 -92.1697 263° West 408 470 36,000  Level Chicago Center
09:26AM 41.5681 -92.3572 264° West 415 478 36,000  Level Chicago Center
09:27AM 41.5542 -92.5097 263° West 418 481 36,000  Level Chicago Center
09:28AM 41.5383 -92.6603 262° West 414 476 36,000  Level Chicago Center
09:28AM 41.5328 -92.7200 263° West 416 479 36,000  Level Minneapolis Center
09:29AM 41.5147 -92.9053 263° West 421 484 36,000  Level Minneapolis Center
09:31AM 41.4989 -93.0575 262° West 421 484 36,000  Level Minneapolis Center
09:32AM 41.4833 -93.2119 262° West 422 486 36,000  Level Minneapolis Center
09:33AM 41.4642 -93.3953 262° West 422 486 36,000  Level Minneapolis Center
09:34AM 41.4486 -93.5467 262° West 419 482 36,000  Level Minneapolis Center
09:35AM 41.4311 -93.6994 261° West 420 483 36,000  Level Minneapolis Center
09:36AM 41.4053 -93.8533 257° West 427 491 36,000  Level Minneapolis Center
09:37AM 41.3811 -94.0072 258° West 428 493 36,000  Level Minneapolis Center
09:38AM 41.3444 -94.2211 257° West 430 495 36,000  Level Minneapolis Center
09:39AM 41.3181 -94.3744 257° West 427 491 36,000  Level Minneapolis Center
09:40AM 41.2911 -94.5308 257° West 430 495 36,000  Level Minneapolis Center
09:41AM 41.2656 -94.6881 258° West 434 499 36,000  Level Minneapolis Center
09:42AM 41.2394 -94.8436 257° West 434 499 36,000  Level Minneapolis Center
09:43AM 41.2119 -94.9994 257° West 434 499 36,000  Level Minneapolis Center
09:44AM 41.1844 -95.1556 257° West 434 499 36,000  Level Minneapolis Center
09:45AM 41.1572 -95.3106 257° West 431 496 36,000  Level Minneapolis Center
09:46AM 41.1289 -95.4658 256° West 432 497 36,000  Level Minneapolis Center
09:47AM 41.0939 -95.6528 256° West 433 498 36,000  Level Minneapolis Center
09:48AM 41.0650 -95.8097 256° West 433 498 36,000  Level Minneapolis Center
09:49AM 41.0367 -95.9669 257° West 434 499 36,000  Level Minneapolis Center
09:50AM 41.0083 -96.1236 257° West 434 499 36,000  Level Minneapolis Center
09:51AM 40.9794 -96.2775 256° West 430 495 36,000  Level Minneapolis Center
09:52AM 40.9511 -96.4331 256° West 432 497 36,000  Level Minneapolis Center
09:53AM 40.9219 -96.5853 256° West 428 493 36,000  Level Minneapolis Center
09:54AM 40.8925 -96.7389 256° West 429 494 36,000  Level Minneapolis Center
09:55AM 40.8633 -96.8925 256° West 430 495 36,000  Level Minneapolis Center
09:56AM 40.8336 -97.0467 256° West 432 497 36,000  Level Minneapolis Center
09:57AM 40.7981 -97.2297 256° West 430 495 36,000  Level Minneapolis Center
09:58AM 40.7664 -97.3856 255° West 428 493 36,000  Level Minneapolis Center
09:59AM 40.7358 -97.5369 255° West 427 491 36,000  Level Minneapolis Center
10:00AM 40.7069 -97.6892 256° West 427 491 36,000  Level Minneapolis Center
10:02AM 40.6772 -97.8408 256° West 426 490 36,000  Level Minneapolis Center
10:03AM 40.6458 -97.9928 255° West 428 493 36,000  Level Minneapolis Center
10:04AM 40.6142 -98.1450 255° West 429 494 36,000  Level Minneapolis Center
10:05AM 40.5833 -98.2986 255° West 431 496 36,000  Level Minneapolis Center
10:06AM 40.5514 -98.4522 255° West 432 497 36,100  Climbing Minneapolis Center
10:07AM 40.5200 -98.6042 255° West 430 495 36,000 -60 Descending Minneapolis Center
10:08AM 40.4881 -98.7561 255° West 428 493 36,000  Level Minneapolis Center
10:09AM 40.4558 -98.9075 254° West 429 494 36,000  Level Minneapolis Center
10:10AM 40.4175 -99.0861 254° West 424 488 36,000  Level Minneapolis Center
10:10AM 40.3986 -99.1747 254° West 421 484 36,000  Level Denver Center
10:11AM 40.3672 -99.3200 254° West 414 476 36,000  Level Denver Center
10:12AM 40.3358 -99.4667 254° West 416 479 36,000  Level Denver Center
10:13AM 40.3033 -99.6133 254° West 417 480 36,000  Level Denver Center
10:15AM 40.2719 -99.7578 254° West 415 478 36,000  Level Denver Center
10:16AM 40.2350 -99.9236 254° West 416 479 36,000  Level Denver Center
10:17AM 40.2039 -100.0625 254° West 415 478 36,000  Level Denver Center
10:18AM 40.1681 -100.2247 254° West 416 479 36,000  Level Denver Center
10:19AM 40.1358 -100.3639 253° West 415 478 36,000  Level Denver Center
10:20AM 40.0994 -100.5253 254° West 416 479 36,000  Level Denver Center
10:21AM 40.0675 -100.6650 253° West 418 481 36,000  Level Denver Center
10:22AM 40.0350 -100.8044 253° West 419 482 36,000  Level Denver Center
10:23AM 39.9978 -100.9678 253° West 419 482 36,000  Level Denver Center
10:24AM 39.9650 -101.1056 253° West 416 479 36,000  Level Denver Center
10:25AM 39.9275 -101.2658 253° West 414 476 36,000  Level Denver Center
10:26AM 39.8903 -101.4253 253° West 413 475 36,000  Level Denver Center
10:27AM 39.8519 -101.5850 253° West 413 475 36,000  Level Denver Center
10:28AM 39.8183 -101.7225 252° West 415 478 36,000  Level Denver Center
10:29AM 39.7750 -101.9033 253° West 410 472 36,000  Level Denver Center
10:30AM 39.7361 -102.0611 252° West 410 472 36,000  Level Denver Center
10:31AM 39.7039 -102.1942 253° West 403 464 36,000  Level Denver Center
10:32AM 39.6650 -102.3492 252° West 404 465 36,000  Level Denver Center
10:33AM 39.6322 -102.4811 252° West 403 464 36,000  Level Denver Center
10:35AM 39.5994 -102.6153 252° West 406 467 36,000  Level Denver Center
10:36AM 39.5614 -102.7636 252° West 406 467 36,000  Level Denver Center
10:37AM 39.5222 -102.9194 252° West 406 467 36,100  Climbing Denver Center
10:38AM 39.4894 -103.0519 252° West 406 467 36,000 -60 Descending Denver Center
10:39AM 39.4500 -103.2078 252° West 407 468 36,000  Level Denver Center
10:40AM 39.4161 -103.3383 251° West 402 463 36,000  Level Denver Center
10:41AM 39.3761 -103.4911 251° West 402 463 36,000  Level Denver Center
10:42AM 39.3428 -103.6211 252° West 399 459 36,000  Level Denver Center
10:43AM 39.3025 -103.7728 251° West 402 463 36,000  Level Denver Center
10:44AM 39.2689 -103.9042 252° West 402 463 36,000  Level Denver Center
10:45AM 39.2339 -104.0347 251° West 403 464 36,000  Level Denver Center
10:46AM 39.1908 -104.1964 251° West 414 476 36,000  Level Denver Center
10:47AM 39.1558 -104.3303 251° West 398 458 36,000  Level Denver Center
10:48AM 39.1172 -104.4728 251° West 405 466 36,000  Level Denver Center
10:49AM 39.0806 -104.6072 251° West 415 478 36,000  Level Denver Center
10:50AM 39.0389 -104.7592 251° West 409 471 36,000  Level Denver Center
10:51AM 39.0025 -104.8919 251° West 411 473 36,000  Level Denver Center
10:52AM 38.9597 -105.0469 251° West 414 476 36,000  Level Denver Center
10:53AM 38.9108 -105.2228 250° West 410 472 36,000  Level Denver Center
10:54AM 38.8744 -105.3547 251° West 409 471 36,000  Level Denver Center
10:55AM 38.8325 -105.5089 251° West 410 472 36,000  Level Denver Center
10:56AM 38.7956 -105.6406 250° West 411 473 36,000  Level Denver Center
10:57AM 38.7586 -105.7733 250° West 413 475 36,000  Level Denver Center
10:59AM 38.7136 -105.9278 250° West 414 476 36,000  Level Denver Center
11:00AM 38.6769 -106.0600 250° West 413 475 36,000  Level Denver Center
11:01AM 38.6375 -106.1953 250° West 412 474 36,000  Level Denver Center
11:02AM 38.5969 -106.3347 250° West 414 476 36,000  Level Denver Center
11:03AM 38.5492 -106.4978 250° West 409 471 36,000  Level Denver Center
11:04AM 38.5086 -106.6369 250° West 414 476 36,000  Level Denver Center
11:05AM 38.4669 -106.7767 249° West 417 480 36,000  Level Denver Center
11:06AM 38.4264 -106.9172 250° West 421 484 36,000  Level Denver Center
11:07AM 38.3850 -107.0586 250° West 423 487 36,100  Climbing Denver Center
11:08AM 38.3422 -107.2008 249° West 419 482 36,000 -60 Descending Denver Center
11:09AM 38.2950 -107.3561 249° West 421 484 36,000  Level Denver Center
11:10AM 38.2544 -107.4894 249° West 421 484 36,000  Level Denver Center
11:11AM 38.2081 -107.6450 249° West 420 483 36,000  Level Denver Center
11:12AM 38.1675 -107.7761 249° West 418 481 36,000  Level Denver Center
11:13AM 38.1208 -107.9314 249° West 420 483 36,000  Level Denver Center
11:14AM 38.0800 -108.0636 249° West 420 483 36,000  Level Denver Center
11:15AM 38.0292 -108.2281 249° West 414 476 36,000  Level Denver Center
11:16AM 37.9811 -108.3828 249° West 420 483 36,000  Level Denver Center
11:17AM 37.9403 -108.5119 248° West 416 479 36,000  Level Denver Center
11:18AM 37.8933 -108.6650 249° West 418 481 36,000  Level Denver Center
11:19AM 37.8517 -108.7967 248° West 420 483 36,000  Level Denver Center
11:20AM 37.8039 -108.9472 248° West 416 479 36,000  Level Denver Center
11:21AM 37.7722 -109.0808 253° West 415 478 36,000  Level Denver Center
11:23AM 37.7328 -109.2358 252° West 415 478 36,000  Level Denver Center
11:24AM 37.6997 -109.3689 253° West 415 478 36,000  Level Denver Center
11:25AM 37.6611 -109.5239 253° West 415 478 36,000  Level Denver Center
11:26AM 37.6275 -109.6558 252° West 413 475 36,000  Level Denver Center
11:28AM 37.5561 -109.9250 252° West 416 479 36,100  Climbing Los Angeles Center
11:28AM 37.5489 -109.9653 257° West 415 478 36,000 -120 Descending Denver Center
11:29AM 37.5097 -110.1203 252° West 416 479 36,000 -60 Level Denver Center
11:30AM 37.4675 -110.2844 252° West 415 478 35,900 -540 Descending Denver Center
11:31AM 37.4236 -110.4475 251° West 411 473 34,800 -1,020 Descending Denver Center
11:32AM 37.3883 -110.5872 252° West 417 480 33,800 -1,020 Descending Denver Center
11:33AM 37.3433 -110.7539 251° West 419 482 32,700 -900 Descending Denver Center
11:35AM 37.3069 -110.8925 252° West 419 482 32,000 -360 Descending Denver Center
11:36AM 37.2692 -111.0339 251° West 426 490 32,000  Level Denver Center
11:37AM 37.2319 -111.1725 251° West 422 486 32,000  Level Denver Center
11:38AM 37.2022 -111.2847 252° West 424 488 32,000  Level Denver Center
11:39AM 37.1567 -111.4531 251° West 425 489 32,000  Level Denver Center
11:41AM 37.0658 -111.7872 251° West 422 486 32,000  Level Denver Center
11:42AM 37.0294 -111.9275 252° West 424 488 32,000  Level Denver Center
11:43AM 36.9964 -112.0694 254° West 424 488 32,000  Level Denver Center
11:44AM 36.9636 -112.2089 254° West 422 486 32,000 -240 Level Los Angeles Center
11:45AM 36.9222 -112.3783 253° West 424 488 31,500 -780 Descending Los Angeles Center
11:46AM 36.8881 -112.5189 253° West 423 487 30,500 -1,020 Descending Los Angeles Center
11:47AM 36.8531 -112.6619 253° West 428 493 29,500 -1,020 Descending Los Angeles Center
11:48AM 36.8192 -112.8028 253° West 425 489 28,500 -1,020 Descending Los Angeles Center
11:49AM 36.7853 -112.9406 253° West 418 481 27,500 -1,020 Descending Los Angeles Center
11:50AM 36.7525 -113.0767 253° West 412 474 26,500 -1,020 Descending Los Angeles Center
11:51AM 36.7128 -113.2356 253° West 402 463 25,400 -1,020 Descending Los Angeles Center
11:52AM 36.6803 -113.3667 253° West 398 458 24,400 -720 Descending Los Angeles Center
11:53AM 36.6486 -113.4931 253° West 387 445 24,000 -240 Descending Los Angeles Center
11:54AM 36.6172 -113.6183 253° West 382 440 24,000 -240 Level Los Angeles Center
11:55AM 36.5839 -113.7447 252° West 384 442 23,600 -1,020 Descending Los Angeles Center
11:56AM 36.5589 -113.8436 253° West 379 436 22,000 -2,280 Descending Los Angeles Center
11:58AM 36.5147 -114.0183 253° West 378 435 18,900 -2,640 Descending Los Angeles Center
11:59AM 36.4836 -114.1386 252° West 367 422 16,600 -2,220 Descending Los Angeles Center
12:00PM 36.4525 -114.2561 252° West 359 413 14,400 -1,980 Descending Los Angeles Center
12:01PM 36.4247 -114.3758 254° West 345 397 12,700 -1,260 Descending Los Angeles Center
12:01PM 36.4000 -114.4592 250° West 309 356 12,200 -300 Descending Los Angeles Center
12:03PM 36.2740 -114.5000 180° South  Level FlightAware Approximate
12:03PM 36.2561 -114.4922 180° South 277 319 11,900  Level Los Angeles Center
12:04PM 36.2361 -114.4886 172° South 284 327 11,700 -1,020 Descending Los Angeles Center
12:04PM 36.1825 -114.4931 184° South 249 287 10,800 -1,020 Descending Los Angeles Center
12:05PM 36.1689 -114.4892 167° South 255 293 10,700 -1,200 Descending Los Angeles Center
12:06PM 36.1106 -114.5094 196° South 242 278 9,500 -1,440 Descending Los Angeles Center
12:06PM 36.1025 -114.5225 233° Southwest 243 280 9,200 -1,140 Descending Los Angeles Center
12:07PM 36.0953 -114.5867 262° West 237 273 8,400 -1,020 Descending Los Angeles Center
12:07PM 36.0911 -114.6022 252° West 239 275 8,200 -420 Descending Los Angeles Center
12:08PM 36.0831 -114.6681 261° West 231 266 8,000 -120 Descending Los Angeles Center
12:08PM 36.0806 -114.6800 255° West 231 266 8,100  Climbing Los Angeles Center
12:08PM 36.0750 -114.7294 262° West 231 266 8,000 -300 Descending Los Angeles Center
12:09PM 36.0714 -114.7586 261° West 231 266 7,800 -1,020 Descending Los Angeles Center
12:10PM 36.0736 -114.8203 273° West 242 278 6,900 -1,260 Descending Los Angeles Center
12:10PM 36.0719 -114.8400 264° West 235 270 6,500 -1,380 Descending Los Angeles Center
12:11PM 36.0744 -114.9133 272° West 233 268 5,400 -1,500 Descending Los Angeles Center
12:11PM 36.0725 -114.9375 264° West 236 272 5,000 -1,200 Descending Los Angeles Center
12:12PM 36.0744 -114.9825 273° West 220 253 4,300 -1,080 Descending Los Angeles Center
12:12PM 36.0733 -115.0103 267° West 227 261 3,900 -1,020 Descending Los Angeles Center
12:13PM 36.0739 -115.0492 271° West 192 221 3,300 -900 Descending Los Angeles Center
12:14PM 36.0728 -115.1028 269° West 148 170 2,500 -840 Descending Los Angeles Center